createdAt,value
2023-04-28T00:04:23.523Z,8.43
2023-04-28T00:10:18.794Z,7.33
2023-04-28T00:16:12.241Z,8.33
2023-04-28T00:22:06.632Z,8.70
2023-04-28T00:28:02.026Z,7.63
2023-04-28T00:33:55.428Z,8.13
2023-04-28T00:39:48.409Z,7.40
2023-04-28T00:45:43.447Z,7.70
2023-04-28T00:51:36.916Z,8.50
2023-04-28T00:57:31.224Z,9.83
2023-04-28T01:03:27.059Z,8.47
2023-04-28T01:09:21.157Z,8.40
2023-04-28T01:15:19.713Z,8.53
2023-04-28T01:21:16.120Z,8.23
2023-04-28T01:27:11.052Z,7.93
2023-04-28T01:33:06.608Z,9.50
2023-04-28T01:39:00.149Z,11.23
2023-04-28T01:44:55.126Z,8.07
2023-04-28T01:50:48.572Z,8.70
2023-04-28T01:56:41.998Z,8.90
2023-04-28T02:02:38.404Z,8.43
2023-04-28T02:08:32.140Z,8.77
2023-04-28T02:14:25.652Z,9.17
2023-04-28T02:20:20.493Z,8.60
2023-04-28T02:26:15.528Z,10.20
2023-04-28T02:32:09.083Z,8.33
2023-04-28T02:38:04.030Z,7.80
2023-04-28T02:43:57.542Z,7.37
2023-04-28T02:49:50.914Z,10.50
2023-04-28T02:55:45.806Z,9.40
2023-04-28T03:01:39.352Z,8.43
2023-04-28T03:07:32.855Z,8.63
2023-04-28T03:13:27.687Z,8.17
2023-04-28T03:19:21.179Z,7.30
2023-04-28T03:25:14.664Z,6.43
2023-04-28T03:31:15.487Z,6.50
2023-04-28T03:37:09.418Z,7.07
2023-04-28T03:43:04.603Z,8.43
2023-04-28T03:49:06.876Z,7.13
2023-04-28T03:55:00.549Z,6.87
2023-04-28T04:00:54.596Z,8.00
2023-04-28T04:06:49.441Z,7.23
2023-04-28T04:12:43.026Z,8.10
2023-04-28T04:18:36.652Z,7.00
2023-04-28T04:24:48.380Z,6.90
2023-04-28T04:30:41.986Z,7.70
2023-04-28T04:36:35.446Z,6.43
2023-04-28T04:42:30.369Z,6.53
2023-04-28T04:48:32.244Z,8.17
2023-04-28T04:54:25.716Z,8.43
2023-04-28T05:00:21.833Z,7.33
2023-04-28T05:06:15.476Z,6.47
2023-04-28T05:12:12.115Z,5.67
2023-04-28T05:18:11.286Z,7.83
2023-04-28T05:24:05.050Z,5.83
2023-04-28T05:30:00.381Z,7.03
2023-04-28T05:35:56.691Z,4.70
2023-04-28T05:41:50.265Z,5.13
2023-04-28T05:47:43.374Z,5.97
2023-04-28T05:53:38.636Z,4.43
2023-04-28T05:59:32.580Z,6.50
2023-04-28T06:05:27.211Z,4.20
2023-04-28T06:11:23.373Z,4.67
2023-04-28T06:17:16.769Z,3.47
2023-04-28T06:23:10.029Z,6.10
2023-04-28T06:33:49.421Z,3.67
2023-04-28T06:39:42.933Z,3.37
2023-04-28T06:45:36.287Z,3.80
2023-04-28T06:51:33.314Z,3.50
2023-04-28T06:57:26.755Z,3.20
2023-04-28T07:03:21.749Z,2.80
2023-04-28T07:09:17.888Z,3.90
2023-04-28T07:15:12.167Z,6.50
2023-04-28T07:21:05.942Z,3.67
2023-04-28T07:27:01.339Z,3.70
2023-04-28T07:32:54.847Z,2.97
2023-04-28T07:38:47.931Z,2.60
2023-04-28T07:44:42.792Z,3.53
2023-04-28T07:50:36.245Z,3.07
2023-04-28T07:56:29.277Z,4.40
2023-04-28T08:02:23.836Z,3.17
2023-04-28T08:08:17.438Z,4.70
2023-04-28T08:14:10.861Z,4.10
2023-04-28T08:20:06.722Z,4.63
2023-04-28T08:25:59.955Z,4.13
2023-04-28T08:31:53.180Z,3.90
2023-04-28T08:37:49.491Z,4.97
2023-04-28T08:43:43.333Z,5.10
2023-04-28T08:49:37.155Z,4.37
2023-04-28T08:55:32.300Z,3.87
2023-04-28T09:01:25.742Z,6.67
2023-04-28T09:07:19.205Z,6.40
2023-04-28T09:13:26.301Z,3.40
2023-04-28T09:19:19.775Z,3.67
2023-04-28T09:25:13.780Z,8.43
2023-04-28T09:31:23.296Z,5.00
2023-04-28T09:37:18.178Z,6.33
2023-04-28T09:43:24.900Z,4.70
2023-04-28T09:49:19.252Z,10.33
2023-04-28T09:55:13.591Z,6.27
2023-04-28T10:01:11.286Z,5.47
2023-04-28T10:07:05.787Z,9.17
2023-04-28T10:13:00.162Z,6.00
2023-04-28T10:18:55.543Z,5.20
2023-04-28T10:25:14.146Z,6.13
2023-04-28T10:31:12.448Z,7.57
2023-04-28T10:37:05.994Z,4.87
2023-04-28T10:43:00.831Z,4.87
2023-04-28T10:48:58.512Z,6.60
2023-04-28T10:55:26.983Z,5.97
2023-04-28T11:01:29.693Z,6.57
2023-04-28T11:07:22.937Z,6.50
2023-04-28T11:13:28.434Z,5.53
2023-04-28T11:19:24.981Z,5.97
2023-04-28T11:25:18.122Z,7.33
2023-04-28T11:31:18.869Z,5.50
2023-04-28T11:37:17.626Z,5.33
2023-04-28T11:43:10.886Z,4.90
2023-04-28T11:49:05.676Z,9.20
2023-04-28T11:55:02.746Z,5.70
2023-04-28T12:01:08.608Z,5.13
2023-04-28T12:07:08.270Z,6.60
2023-04-28T12:13:17.102Z,6.70
2023-04-28T12:19:11.058Z,7.60
2023-04-28T12:25:07.143Z,6.70
2023-04-28T12:31:08.365Z,5.30
2023-04-28T12:37:02.578Z,10.03
2023-04-28T12:42:56.652Z,11.70
2023-04-28T12:48:51.090Z,6.13
2023-04-28T12:54:47.134Z,11.60
2023-04-28T13:00:42.066Z,8.70
2023-04-28T13:06:36.664Z,6.90
2023-04-28T13:12:30.243Z,6.83
2023-04-28T13:18:24.724Z,8.17
2023-04-28T13:24:19.557Z,6.37
2023-04-28T13:30:13.881Z,8.90
2023-04-28T13:36:09.461Z,8.37
2023-04-28T13:42:03.885Z,10.33
2023-04-28T13:47:57.423Z,7.63
2023-04-28T13:53:50.976Z,9.13
2023-04-28T13:59:46.204Z,8.40
2023-04-28T14:05:48.894Z,11.37
2023-04-28T14:11:43.470Z,8.37
2023-04-28T14:17:38.052Z,6.80
2023-04-28T14:23:31.560Z,8.17
2023-04-28T14:29:24.585Z,5.90
2023-04-28T14:35:20.839Z,7.20
2023-04-28T14:41:13.897Z,8.90
2023-04-28T14:47:07.014Z,8.23
2023-04-28T14:53:05.807Z,7.03
2023-04-28T14:58:59.259Z,9.83
2023-04-28T15:04:52.672Z,7.17
2023-04-28T15:10:47.685Z,8.67
2023-04-28T15:16:40.950Z,6.53
2023-04-28T15:22:34.433Z,8.23
2023-04-28T15:28:29.404Z,8.27
2023-04-28T15:34:22.884Z,6.60
2023-04-28T15:40:19.519Z,9.40
2023-04-28T15:46:16.941Z,9.03
2023-04-28T15:52:10.174Z,10.20
2023-04-28T15:58:04.566Z,9.67
2023-04-28T16:03:59.452Z,7.33
2023-04-28T16:09:54.022Z,8.43
2023-04-28T16:15:49.367Z,6.90
2023-04-28T16:21:44.927Z,6.97
2023-04-28T16:27:38.627Z,8.07
2023-04-28T16:33:32.253Z,12.57
2023-04-28T16:39:26.977Z,7.50
2023-04-28T16:45:20.484Z,6.93
2023-04-28T16:51:13.532Z,8.60
2023-04-28T16:57:08.053Z,6.10
2023-04-28T17:03:01.638Z,10.77
2023-04-28T17:08:54.816Z,9.97
2023-04-28T17:14:50.564Z,10.83
2023-04-28T17:20:44.334Z,11.90
2023-04-28T17:26:37.396Z,12.50
2023-04-28T17:32:33.230Z,13.33
2023-04-28T17:38:26.735Z,14.13
2023-04-28T17:44:20.182Z,13.53
2023-04-28T17:50:14.711Z,11.77
2023-04-28T17:56:08.571Z,14.73
2023-04-28T18:02:02.075Z,10.90
2023-04-28T18:07:57.581Z,13.33
2023-04-28T18:13:50.913Z,10.40
2023-04-28T18:19:44.414Z,13.70
2023-04-28T18:25:39.073Z,10.67
2023-04-28T18:31:32.587Z,12.27
2023-04-28T18:37:25.772Z,13.00
2023-04-28T18:43:20.632Z,12.00
2023-04-28T18:49:15.073Z,13.20
2023-04-28T18:55:09.628Z,16.90
2023-04-28T19:01:04.520Z,15.43
2023-04-28T19:06:57.981Z,12.17
2023-04-28T19:12:51.450Z,13.20
2023-04-28T19:18:46.244Z,13.57
2023-04-28T19:24:39.711Z,11.80
2023-04-28T19:30:33.180Z,12.20
2023-04-28T19:36:28.697Z,11.73
2023-04-28T19:42:22.482Z,12.80
2023-04-28T19:48:15.974Z,14.87
2023-04-28T19:54:10.769Z,11.80
2023-04-28T20:00:04.817Z,12.10
2023-04-28T20:07:34.194Z,14.53
2023-04-28T20:13:28.469Z,14.33
2023-04-28T20:19:22.033Z,14.70
2023-04-28T20:25:17.915Z,14.73
2023-04-28T20:31:11.866Z,18.20
2023-04-28T20:37:06.846Z,16.37
2023-04-28T20:43:03.765Z,15.90
2023-04-28T20:48:57.268Z,16.30
2023-04-28T20:54:50.864Z,16.77
2023-04-28T21:00:45.658Z,18.20
2023-04-28T21:06:38.691Z,15.80
2023-04-28T21:12:32.107Z,17.00
2023-04-28T21:18:26.916Z,16.57
2023-04-28T21:24:20.856Z,15.47
2023-04-28T21:30:15.127Z,14.80
2023-04-28T21:36:10.272Z,13.90
2023-04-28T21:42:06.206Z,13.90
2023-04-28T21:48:00.558Z,14.30
2023-04-28T21:53:55.427Z,13.80
2023-04-28T21:59:49.063Z,11.43
2023-04-28T22:05:42.988Z,10.00
2023-04-28T22:11:38.011Z,11.53
2023-04-28T22:17:31.447Z,11.63
2023-04-28T22:23:24.925Z,8.97
2023-04-28T22:29:21.161Z,8.67
2023-04-28T22:35:14.730Z,9.23
2023-04-28T22:41:08.178Z,10.63
2023-04-28T22:47:03.007Z,9.33
2023-04-28T22:52:56.884Z,7.93
2023-04-28T22:58:50.398Z,9.53
2023-04-28T23:04:45.312Z,7.40
2023-04-28T23:10:38.801Z,7.60
2023-04-28T23:16:32.303Z,10.10
2023-04-28T23:22:27.139Z,7.60
2023-04-28T23:28:20.562Z,9.60
2023-04-28T23:34:13.937Z,8.40
2023-04-28T23:40:10.140Z,8.13
2023-04-28T23:46:03.596Z,8.40
2023-04-28T23:51:57.050Z,9.60
2023-04-28T23:57:51.794Z,9.13
